createdAt,value
2019-01-08T00:02:20.866Z,4.30
2019-01-08T00:05:14.574Z,4.20
2019-01-08T00:07:59.158Z,4.50
2019-01-08T00:10:43.441Z,4.50
2019-01-08T00:13:29.751Z,4.40
2019-01-08T00:16:14.918Z,4.30
2019-01-08T00:18:59.791Z,4.20
2019-01-08T00:21:44.539Z,4.10
2019-01-08T00:24:29.373Z,4.10
2019-01-08T00:27:14.161Z,4.40
2019-01-08T00:29:59.499Z,4.40
2019-01-08T00:32:53.631Z,4.40
2019-01-08T00:35:47.242Z,4.40
2019-01-08T00:38:32.515Z,4.30
2019-01-08T00:41:27.423Z,4.20
2019-01-08T00:44:12.238Z,4.30
2019-01-08T00:46:57.083Z,4.30
2019-01-08T00:49:41.629Z,4.30
2019-01-08T00:52:26.235Z,4.20
2019-01-08T00:55:10.688Z,4.20
2019-01-08T00:58:04.158Z,4.10
2019-01-08T01:00:48.531Z,4.20
2019-01-08T01:03:33.087Z,4.20
2019-01-08T01:06:18.215Z,4.20
2019-01-08T01:09:03.374Z,4.10
2019-01-08T01:11:48.791Z,4.20
2019-01-08T01:14:44.484Z,4.30
2019-01-08T01:17:37.943Z,4.30
2019-01-08T01:20:22.446Z,4.50
2019-01-08T01:23:07.609Z,4.50
2019-01-08T01:25:52.434Z,4.50
2019-01-08T01:28:37.587Z,4.60
2019-01-08T01:31:30.928Z,4.50
2019-01-08T01:34:15.397Z,4.40
2019-01-08T01:36:59.982Z,4.50
2019-01-08T01:39:44.951Z,4.50
2019-01-08T01:42:39.550Z,4.30
2019-01-08T01:45:24.059Z,4.30
2019-01-08T01:48:08.330Z,4.40
2019-01-08T01:51:01.111Z,4.50
2019-01-08T01:53:45.731Z,4.30
2019-01-08T01:56:30.637Z,4.20
2019-01-08T01:59:15.398Z,4.10
2019-01-08T02:02:00.336Z,4.00
2019-01-08T02:04:45.066Z,4.10
2019-01-08T02:07:30.060Z,4.00
2019-01-08T02:10:14.624Z,4.00
2019-01-08T02:12:58.752Z,4.00
2019-01-08T02:15:52.207Z,4.00
2019-01-08T02:18:36.892Z,4.10
2019-01-08T02:21:21.447Z,4.20
2019-01-08T02:24:05.779Z,4.50
2019-01-08T02:26:59.489Z,4.40
2019-01-08T02:29:43.827Z,4.30
2019-01-08T02:32:28.619Z,4.30
2019-01-08T02:35:13.889Z,4.30
2019-01-08T02:37:58.824Z,4.30
2019-01-08T02:40:52.108Z,4.20
2019-01-08T02:43:36.883Z,4.30
2019-01-08T02:46:21.579Z,4.40
2019-01-08T02:49:06.513Z,4.40
2019-01-08T02:51:51.920Z,4.50
2019-01-08T02:54:36.566Z,4.50
2019-01-08T02:57:21.046Z,4.50
2019-01-08T03:00:05.959Z,4.60
2019-01-08T03:02:50.763Z,4.60
2019-01-08T03:05:35.524Z,4.70
2019-01-08T03:08:20.197Z,4.70
2019-01-08T03:11:04.344Z,4.80
2019-01-08T03:13:57.624Z,4.80
2019-01-08T03:16:42.136Z,4.80
2019-01-08T03:19:26.959Z,4.90
2019-01-08T03:22:11.703Z,5.00
2019-01-08T03:24:56.486Z,5.00
2019-01-08T03:27:40.903Z,5.10
2019-01-08T03:30:34.544Z,5.10
2019-01-08T03:33:18.859Z,5.10
2019-01-08T03:36:03.475Z,5.00
2019-01-08T03:38:48.120Z,4.90
2019-01-08T03:41:32.977Z,4.90
2019-01-08T03:44:17.823Z,4.90
2019-01-08T03:47:02.836Z,5.00
2019-01-08T03:49:47.743Z,5.00
2019-01-08T03:52:32.464Z,5.00
2019-01-08T03:55:17.524Z,5.10
2019-01-08T03:58:02.084Z,5.10
2019-01-08T04:00:46.899Z,5.20
2019-01-08T04:03:31.288Z,5.20
2019-01-08T04:06:15.834Z,5.20
2019-01-08T04:09:09.292Z,5.10
2019-01-08T04:11:54.167Z,5.10
2019-01-08T04:14:38.379Z,5.20
2019-01-08T04:17:23.097Z,5.20
2019-01-08T04:20:07.795Z,5.30
2019-01-08T04:22:52.392Z,5.30
2019-01-08T04:25:45.628Z,5.20
2019-01-08T04:28:30.255Z,5.10
2019-01-08T04:31:14.582Z,5.00
2019-01-08T04:33:59.472Z,5.10
2019-01-08T04:36:44.560Z,5.00
2019-01-08T04:39:29.376Z,4.90
2019-01-08T04:42:13.984Z,5.00
2019-01-08T04:44:58.676Z,5.00
2019-01-08T04:47:43.216Z,5.10
2019-01-08T04:50:36.336Z,5.00
2019-01-08T04:53:20.944Z,5.00
2019-01-08T04:56:05.826Z,5.20
2019-01-08T04:58:50.503Z,5.10
2019-01-08T05:01:35.457Z,5.10
2019-01-08T05:04:20.212Z,5.20
2019-01-08T05:07:04.807Z,5.10
2019-01-08T05:09:49.591Z,5.10
2019-01-08T05:12:34.271Z,5.00
2019-01-08T05:15:19.251Z,5.00
2019-01-08T05:18:04.203Z,4.90
2019-01-08T05:20:48.260Z,4.70
2019-01-08T05:23:41.556Z,4.80
2019-01-08T05:26:26.356Z,4.90
2019-01-08T05:29:10.763Z,4.70
2019-01-08T05:31:55.327Z,4.60
2019-01-08T05:34:48.610Z,4.70
2019-01-08T05:37:32.771Z,4.80
2019-01-08T05:40:17.758Z,4.60
2019-01-08T05:43:02.299Z,4.60
2019-01-08T05:45:46.851Z,4.70
2019-01-08T05:48:40.192Z,4.50
2019-01-08T05:51:24.914Z,4.40
2019-01-08T05:54:09.490Z,4.40
2019-01-08T05:56:54.120Z,4.70
2019-01-08T05:59:38.952Z,4.70
2019-01-08T06:02:23.608Z,4.80
2019-01-08T06:05:08.716Z,4.80
2019-01-08T06:07:53.408Z,4.70
2019-01-08T06:10:38.173Z,4.90
2019-01-08T06:13:22.890Z,4.80
2019-01-08T06:16:07.840Z,4.60
2019-01-08T06:18:52.483Z,4.50
2019-01-08T06:21:37.442Z,4.50
2019-01-08T06:24:21.555Z,4.80
2019-01-08T06:27:15.051Z,4.80
2019-01-08T06:30:13.343Z,4.70
2019-01-08T06:32:56.419Z,4.60
2019-01-08T06:35:49.909Z,4.70
2019-01-08T06:38:34.083Z,4.70
2019-01-08T06:41:19.047Z,4.80
2019-01-08T06:44:03.283Z,4.70
2019-01-08T06:46:56.950Z,4.90
2019-01-08T06:49:41.283Z,4.80
2019-01-08T06:52:26.231Z,5.00
2019-01-08T06:55:10.648Z,5.10
2019-01-08T06:57:55.062Z,5.30
2019-01-08T07:00:48.634Z,5.20
2019-01-08T07:03:33.443Z,5.10
2019-01-08T07:06:18.035Z,5.00
2019-01-08T07:09:03.413Z,5.00
2019-01-08T07:11:49.016Z,4.90
2019-01-08T07:14:33.595Z,4.80
2019-01-08T07:17:17.636Z,5.00
2019-01-08T07:20:11.455Z,5.10
2019-01-08T07:22:56.237Z,5.00
2019-01-08T07:25:42.287Z,5.00
2019-01-08T07:28:26.732Z,5.00
2019-01-08T07:31:10.871Z,5.30
2019-01-08T07:34:04.339Z,5.50
2019-01-08T07:36:49.037Z,5.80
2019-01-08T07:39:33.479Z,6.00
2019-01-08T07:42:18.005Z,6.20
2019-01-08T07:45:11.324Z,6.20
2019-01-08T07:47:55.843Z,6.40
2019-01-08T07:50:40.612Z,6.60
2019-01-08T07:53:24.287Z,6.70
2019-01-08T07:56:16.051Z,6.80
2019-01-08T07:59:09.497Z,6.80
2019-01-08T08:01:54.143Z,6.80
2019-01-08T08:04:38.594Z,6.90
2019-01-08T08:07:23.524Z,7.00
2019-01-08T08:10:07.691Z,7.10
2019-01-08T08:13:01.139Z,7.10
2019-01-08T08:15:45.539Z,7.20
2019-01-08T08:18:30.207Z,7.30
2019-01-08T08:21:14.667Z,7.30
2019-01-08T08:24:07.799Z,7.40
2019-01-08T08:26:52.691Z,7.40
2019-01-08T08:29:37.339Z,7.40
2019-01-08T08:32:21.671Z,7.30
2019-01-08T08:35:08.501Z,7.20
2019-01-08T08:37:52.386Z,7.20
2019-01-08T08:40:46.243Z,7.10
2019-01-08T08:43:31.243Z,7.20
2019-01-08T08:46:25.352Z,7.10
2019-01-08T08:49:19.071Z,7.00
2019-01-08T08:52:03.908Z,6.90
2019-01-08T08:54:48.769Z,6.90
2019-01-08T08:57:33.227Z,7.00
2019-01-08T09:00:17.490Z,7.00
2019-01-08T09:03:02.020Z,7.00
2019-01-08T09:05:55.548Z,7.00
2019-01-08T09:08:40.391Z,7.10
2019-01-08T09:11:24.798Z,7.10
2019-01-08T09:14:09.993Z,7.10
2019-01-08T09:16:54.960Z,7.10
2019-01-08T09:19:48.945Z,7.10
2019-01-08T09:22:43.399Z,7.00
2019-01-08T09:25:35.434Z,7.00
2019-01-08T09:28:20.296Z,7.00
2019-01-08T09:31:05.273Z,7.20
2019-01-08T09:33:59.006Z,7.30
2019-01-08T09:36:43.451Z,7.40
2019-01-08T09:39:28.117Z,7.50
2019-01-08T09:42:12.848Z,7.50
2019-01-08T09:44:57.863Z,7.60
2019-01-08T09:47:42.467Z,7.70
2019-01-08T09:50:27.604Z,7.70
2019-01-08T09:53:12.077Z,7.70
2019-01-08T09:56:06.659Z,7.70
2019-01-08T09:58:51.703Z,7.80
2019-01-08T10:01:36.275Z,7.80
2019-01-08T10:04:20.344Z,7.90
2019-01-08T10:07:04.847Z,7.90
2019-01-08T10:09:58.500Z,8.00
2019-01-08T10:12:42.571Z,8.00
2019-01-08T10:15:27.103Z,8.00
2019-01-08T10:18:12.076Z,8.10
2019-01-08T10:20:57.399Z,8.20
2019-01-08T10:23:42.248Z,8.40
2019-01-08T10:26:26.921Z,8.60
2019-01-08T10:29:11.880Z,8.80
2019-01-08T10:31:55.992Z,8.90
2019-01-08T10:34:41.003Z,9.00
2019-01-08T10:37:25.207Z,9.10
2019-01-08T10:40:18.528Z,9.20
2019-01-08T10:43:03.387Z,9.10
2019-01-08T10:45:49.031Z,9.00
2019-01-08T10:48:34.676Z,8.80
2019-01-08T10:51:19.496Z,8.60
2019-01-08T10:54:04.153Z,8.70
2019-01-08T10:56:58.028Z,8.70
2019-01-08T10:59:42.727Z,8.80
2019-01-08T11:02:27.402Z,9.00
2019-01-08T11:05:20.625Z,9.10
2019-01-08T11:08:05.450Z,9.10
2019-01-08T11:10:50.272Z,9.10
2019-01-08T11:13:35.197Z,9.30
2019-01-08T11:16:20.340Z,9.80
2019-01-08T11:19:14.307Z,10.20
2019-01-08T11:22:07.764Z,10.10
2019-01-08T11:24:52.365Z,9.80
2019-01-08T11:27:36.841Z,9.90
2019-01-08T11:30:21.559Z,10.00
2019-01-08T11:33:06.374Z,10.00
2019-01-08T11:35:51.027Z,9.90
2019-01-08T11:38:44.085Z,10.10
2019-01-08T11:41:29.034Z,10.20
2019-01-08T11:44:13.403Z,10.20
2019-01-08T11:46:57.848Z,10.00
2019-01-08T11:49:51.373Z,9.70
2019-01-08T11:52:36.041Z,9.30
2019-01-08T11:55:20.734Z,9.20
2019-01-08T11:58:05.732Z,9.00
2019-01-08T12:00:50.179Z,9.00
2019-01-08T12:03:34.659Z,8.90
2019-01-08T12:06:19.268Z,8.80
2019-01-08T12:09:04.292Z,8.50
2019-01-08T12:11:49.224Z,8.60
2019-01-08T12:14:33.911Z,8.70
2019-01-08T12:17:18.481Z,8.60
2019-01-08T12:20:03.624Z,8.50
2019-01-08T12:22:48.324Z,8.50
2019-01-08T12:25:33.125Z,8.60
2019-01-08T12:28:17.896Z,8.60
2019-01-08T12:31:03.013Z,8.60
2019-01-08T12:33:47.974Z,8.60
2019-01-08T12:36:32.371Z,8.60
2019-01-08T12:39:17.275Z,8.60
2019-01-08T12:42:01.995Z,8.70
2019-01-08T12:44:46.436Z,8.70
2019-01-08T12:47:39.527Z,8.80
2019-01-08T12:50:24.815Z,8.90
2019-01-08T12:53:10.980Z,9.00
2019-01-08T12:55:55.611Z,9.00
2019-01-08T12:58:40.459Z,9.10
2019-01-08T13:01:24.911Z,9.00
2019-01-08T13:04:09.368Z,8.80
2019-01-08T13:07:08.832Z,8.60
2019-01-08T13:09:53.072Z,8.60
2019-01-08T13:12:37.715Z,8.60
2019-01-08T13:15:22.778Z,8.60
2019-01-08T13:18:07.444Z,8.60
2019-01-08T13:20:52.235Z,8.30
2019-01-08T13:23:36.670Z,8.20
2019-01-08T13:26:21.416Z,8.00
2019-01-08T13:29:06.972Z,7.90
2019-01-08T13:31:51.639Z,7.90
2019-01-08T13:34:35.908Z,7.80
2019-01-08T13:37:20.708Z,7.80
2019-01-08T13:40:05.312Z,7.70
2019-01-08T13:42:50.055Z,7.60
2019-01-08T13:45:43.640Z,7.60
2019-01-08T13:48:28.323Z,7.60
2019-01-08T13:51:14.197Z,7.60
2019-01-08T13:53:58.808Z,7.50
2019-01-08T13:56:42.903Z,7.40
2019-01-08T13:59:27.169Z,7.40
2019-01-08T14:02:11.568Z,7.40
2019-01-08T14:04:56.448Z,7.40
2019-01-08T14:07:40.653Z,7.30
2019-01-08T14:10:34.555Z,7.30
2019-01-08T14:13:19.807Z,7.20
2019-01-08T14:16:13.384Z,7.20
2019-01-08T14:18:58.594Z,7.10
2019-01-08T14:21:52.308Z,7.00
2019-01-08T14:24:46.237Z,6.90
2019-01-08T14:27:30.687Z,7.00
2019-01-08T14:30:15.555Z,7.10
2019-01-08T14:33:00.280Z,7.10
2019-01-08T14:35:44.996Z,7.20
2019-01-08T14:38:29.932Z,7.10
2019-01-08T14:41:14.677Z,7.00
2019-01-08T14:43:59.866Z,6.90
2019-01-08T14:46:44.006Z,6.90
2019-01-08T14:49:28.568Z,6.80
2019-01-08T14:52:13.771Z,6.80
2019-01-08T14:54:58.400Z,6.90
2019-01-08T14:57:43.196Z,6.80
2019-01-08T15:00:28.042Z,6.80
2019-01-08T15:03:12.778Z,6.80
2019-01-08T15:05:57.609Z,6.80
2019-01-08T15:08:42.749Z,6.70
2019-01-08T15:11:27.335Z,6.70
2019-01-08T15:14:12.041Z,6.80
2019-01-08T15:16:56.792Z,6.70
2019-01-08T15:19:41.704Z,6.70
2019-01-08T15:22:26.727Z,6.80
2019-01-08T15:25:11.003Z,6.70
2019-01-08T15:28:04.914Z,6.80
2019-01-08T15:31:00.963Z,6.80
2019-01-08T15:33:45.557Z,6.80
2019-01-08T15:36:30.184Z,6.70
2019-01-08T15:39:15.324Z,6.70
2019-01-08T15:42:00.136Z,6.70
2019-01-08T15:44:44.212Z,6.80
2019-01-08T15:47:37.699Z,6.70
2019-01-08T15:50:22.452Z,6.80
2019-01-08T15:53:07.632Z,6.80
2019-01-08T15:56:01.449Z,6.80
2019-01-08T15:58:46.699Z,6.80
2019-01-08T16:01:40.424Z,6.70
2019-01-08T16:04:25.038Z,6.60
2019-01-08T16:07:09.805Z,6.60
2019-01-08T16:09:54.261Z,6.60
2019-01-08T16:12:38.507Z,6.60
2019-01-08T16:15:23.904Z,6.60
2019-01-08T16:18:08.560Z,6.60
2019-01-08T16:20:52.991Z,6.70
2019-01-08T16:23:46.500Z,6.70
2019-01-08T16:26:31.103Z,6.70
2019-01-08T16:29:15.951Z,6.60
2019-01-08T16:32:00.868Z,6.60
2019-01-08T16:34:45.555Z,6.50
2019-01-08T16:37:30.040Z,6.40
2019-01-08T16:40:14.583Z,6.30
2019-01-08T16:42:59.656Z,6.30
2019-01-08T16:45:44.320Z,6.40
2019-01-08T16:48:28.739Z,6.30
2019-01-08T16:51:21.916Z,6.10
2019-01-08T16:54:06.640Z,6.10
2019-01-08T16:56:51.263Z,6.10
2019-01-08T16:59:35.880Z,6.10
2019-01-08T17:02:20.655Z,6.10
2019-01-08T17:05:05.129Z,6.10
2019-01-08T17:07:58.369Z,6.20
2019-01-08T17:10:43.367Z,6.20
2019-01-08T17:13:27.715Z,6.20
2019-01-08T17:16:12.712Z,6.30
2019-01-08T17:18:57.607Z,6.20
2019-01-08T17:21:42.497Z,6.20
2019-01-08T17:24:27.162Z,6.30
2019-01-08T17:27:11.848Z,6.20
2019-01-08T17:29:56.391Z,6.30
2019-01-08T17:32:40.803Z,6.30
2019-01-08T17:35:34.078Z,6.40
2019-01-08T17:38:18.875Z,6.40
2019-01-08T17:41:03.088Z,6.40
2019-01-08T17:43:47.671Z,6.40
2019-01-08T17:46:41.051Z,6.40
2019-01-08T17:49:25.807Z,6.40
2019-01-08T17:52:11.759Z,6.30
2019-01-08T17:54:56.263Z,6.30
2019-01-08T17:57:41.064Z,6.30
2019-01-08T18:00:26.196Z,6.20
2019-01-08T18:03:11.084Z,6.20
2019-01-08T18:05:55.471Z,6.20
2019-01-08T18:08:40.647Z,6.30
2019-01-08T18:11:25.049Z,6.20
2019-01-08T18:14:09.774Z,6.30
2019-01-08T18:17:02.987Z,6.30
2019-01-08T18:19:47.970Z,6.30
2019-01-08T18:22:32.734Z,6.10
2019-01-08T18:25:17.327Z,6.20
2019-01-08T18:28:02.481Z,6.20
2019-01-08T18:30:47.339Z,6.20
2019-01-08T18:33:31.776Z,6.20
2019-01-08T18:36:16.659Z,6.10
2019-01-08T18:39:01.327Z,6.20
2019-01-08T18:41:47.627Z,6.20
2019-01-08T18:44:32.140Z,6.20
2019-01-08T18:47:16.884Z,6.20
2019-01-08T18:50:01.425Z,6.10
2019-01-08T18:52:54.779Z,6.10
2019-01-08T18:55:39.287Z,6.10
2019-01-08T18:58:24.100Z,6.10
2019-01-08T19:01:08.855Z,6.20
2019-01-08T19:03:59.748Z,6.10
2019-01-08T19:06:39.363Z,6.10
2019-01-08T19:09:32.822Z,6.10
2019-01-08T19:12:17.611Z,6.20
2019-01-08T19:15:02.305Z,6.10
2019-01-08T19:17:48.072Z,6.20
2019-01-08T19:20:33.101Z,6.10
2019-01-08T19:23:17.816Z,6.10
2019-01-08T19:26:02.814Z,6.10
2019-01-08T19:28:47.400Z,6.10
2019-01-08T19:31:32.216Z,6.10
2019-01-08T19:34:17.231Z,6.10
2019-01-08T19:37:01.936Z,6.10
2019-01-08T19:39:46.463Z,6.10
2019-01-08T19:42:31.296Z,6.10
2019-01-08T19:45:16.088Z,6.20
2019-01-08T19:48:01.228Z,6.20
2019-01-08T19:50:46.235Z,6.10
2019-01-08T19:53:31.167Z,6.10
2019-01-08T19:56:15.559Z,6.00
2019-01-08T19:58:59.967Z,6.10
2019-01-08T20:01:52.979Z,6.10
2019-01-08T20:04:37.446Z,6.20
2019-01-08T20:07:22.445Z,6.10
2019-01-08T20:10:06.896Z,6.10
2019-01-08T20:12:59.947Z,6.20
2019-01-08T20:15:44.963Z,6.10
2019-01-08T20:18:29.603Z,6.10
2019-01-08T20:21:14.144Z,6.20
2019-01-08T20:24:06.310Z,6.10
2019-01-08T20:26:46.224Z,6.20
2019-01-08T20:29:39.776Z,6.20
2019-01-08T20:32:24.530Z,6.20
2019-01-08T20:35:10.237Z,6.10
2019-01-08T20:37:54.619Z,6.10
2019-01-08T20:40:48.744Z,6.10
2019-01-08T20:43:42.041Z,6.00
2019-01-08T20:46:26.771Z,6.00
2019-01-08T20:49:11.751Z,5.90
2019-01-08T20:51:56.049Z,5.90
2019-01-08T20:54:40.760Z,6.00
2019-01-08T20:57:25.243Z,6.00
2019-01-08T21:00:10.875Z,6.10
2019-01-08T21:02:55.945Z,6.10
2019-01-08T21:05:41.684Z,6.10
2019-01-08T21:08:36.405Z,6.20
2019-01-08T21:11:21.403Z,6.10
2019-01-08T21:14:05.709Z,6.00
2019-01-08T21:16:50.033Z,6.00
2019-01-08T21:19:34.994Z,6.00
2019-01-08T21:22:20.152Z,6.00
2019-01-08T21:25:14.188Z,6.00
2019-01-08T21:27:58.967Z,5.80
2019-01-08T21:30:43.323Z,5.70
2019-01-08T21:33:27.640Z,5.70
2019-01-08T21:36:21.177Z,5.70
2019-01-08T21:39:05.975Z,5.80
2019-01-08T21:41:52.373Z,5.70
2019-01-08T21:44:36.496Z,5.80
2019-01-08T21:47:21.073Z,5.80
2019-01-08T21:50:14.916Z,5.70
2019-01-08T21:53:08.539Z,5.70
2019-01-08T21:55:53.159Z,5.70
2019-01-08T21:58:37.919Z,5.60
2019-01-08T22:01:22.552Z,5.60
2019-01-08T22:04:07.752Z,5.70
2019-01-08T22:06:52.109Z,5.60
2019-01-08T22:09:36.423Z,5.70
2019-01-08T22:12:29.820Z,5.60
2019-01-08T22:15:15.633Z,5.60
2019-01-08T22:18:00.314Z,5.60
2019-01-08T22:20:46.003Z,5.60
2019-01-08T22:23:31.020Z,5.60
2019-01-08T22:26:24.684Z,5.50
2019-01-08T22:29:09.027Z,5.40
2019-01-08T22:31:53.915Z,5.40
2019-01-08T22:34:38.572Z,5.50
2019-01-08T22:37:23.371Z,5.50
2019-01-08T22:40:07.888Z,5.50
2019-01-08T22:42:53.820Z,5.60
2019-01-08T22:45:47.791Z,5.60
2019-01-08T22:48:32.227Z,5.50
2019-01-08T22:51:16.763Z,5.50
2019-01-08T22:54:01.259Z,5.40
2019-01-08T22:56:45.803Z,5.40
2019-01-08T22:59:39.443Z,5.40
2019-01-08T23:02:33.216Z,5.50
2019-01-08T23:05:17.931Z,5.50
2019-01-08T23:08:02.664Z,5.50
2019-01-08T23:10:46.943Z,5.50
2019-01-08T23:13:41.763Z,5.50
2019-01-08T23:16:28.275Z,5.50
2019-01-08T23:19:13.159Z,5.50
2019-01-08T23:22:07.034Z,5.50
2019-01-08T23:24:51.675Z,5.40
2019-01-08T23:27:36.267Z,5.40
2019-01-08T23:30:21.083Z,5.40
2019-01-08T23:33:05.776Z,5.40
2019-01-08T23:35:50.861Z,5.40
2019-01-08T23:38:35.185Z,5.40
2019-01-08T23:41:19.947Z,5.40
2019-01-08T23:44:04.487Z,5.40
2019-01-08T23:46:57.812Z,5.40
2019-01-08T23:49:41.915Z,5.40
2019-01-08T23:52:26.695Z,5.40
2019-01-08T23:55:11.332Z,5.30
2019-01-08T23:58:04.276Z,5.20
